KHUA/HUA METAR and TAF weather

Enter ICAO airport designator
Station Type Date Time Source
KHUA METAR 2021/07/28 18:58 UTC NOAA

KHUA 281858Z AUTO 36005KT 10SM FEW055 34/22 A3004 RMK AO2 SLP165 T03360221


Station Type Date Time Source
KHUA Decoded METAR 2021/07/28 18:58 UTC NOAA

Station name not available
Jul 28, 2021 - 02:58 PM EDT / 2021.07.28 1858 UTC
Wind: from the N (360 degrees) at 6 MPH (5 KT):0
Visibility: 10 mile(s):0
Sky conditions: mostly clear
Temperature: 92.5 F (33.6 C)
Heat index: 100.2 F (37.9 C):1
Dew Point: 71.8 F (22.1 C)
Relative Humidity: 51%
Pressure (altimeter): 30.04 in. Hg (1017 hPa)
ob: KHUA 281858Z AUTO 36005KT 10SM FEW055 34/22 A3004 RMK AO2 SLP165 T03360221
cycle: 19

Station Type Date Time Source
KHUA TAF 2021/07/28 20:27 UTC NOAA

TAF COR KHUA 280425Z 2720/2902 VRB06KT 9000 -SHRA FEW040 QNH2996INS
TEMPO 2720/2721 VRB30G40KT 9000 -TSRA BKN030CB
BECMG 2721/2722 VRB06KT 9999 NSW FEW040 QNH2997INS
BECMG 2722/2723 VRB06KT 9000 -SHRA FEW040 QNH2996INS TX34/2721Z TN23/2811Z LAST NO
AMDS AFT 2800 NEXT 2812

Example: see airport list